Koun Maru — JK5556 — position and weather

sailwx.info

Track history (hours):
 
Tides and Currents Weather Stations Pressure Air Temp Water Temp Dewpoint Dewpoint Depression Visibility Wind Speed Wind Dir Waves Ship Positions

Koun Maru

Last reported at 2014-Dec-22 04:33 UTC. Time now 2014-Dec-22 04:57 UTC.
Position N 34°42' E 135°16'.

Length 40 m.

Type: Tanker. MMSI: 431401871.

Date/timePositionNaut miles runAvg speedWind from/ knotsBaromVisibWave heightAir tempDewpointWater temp
2014-Dec-22 04:33N 34°42' E 135°16'9 8.4
2014-Dec-22 03:29N 34°39' E 135°26'1 0.6
2014-Dec-22 02:13N 34°38' E 135°27'4 5.7
2014-Dec-22 01:28N 34°35' E 135°24'4 0.1
2014-Dec-20 00:05N 34°39' E 135°25'6 2.9
2014-Dec-19 22:10N 34°33' E 135°25'5 0.6
2014-Dec-19 12:32N 34°34' E 135°19'1110.5
2014-Dec-19 11:31N 34°36' E 135°06'  
2014-Dec-16 10:26N 34°38' E 134°58'7 7.7
2014-Dec-16 09:32N 34°37' E 135°07'8 8.6
2014-Dec-16 08:33N 34°42' E 135°15'0 0.1
2014-Dec-16 06:16N 34°42' E 135°15'0 0.0
2014-Dec-16 04:26N 34°42' E 135°15'0 0.0
2014-Dec-16 03:31N 34°42' E 135°15'0 0.1
2014-Dec-16 02:09N 34°42' E 135°15'1 0.2
2014-Dec-15 23:18N 34°42' E 135°16'4 5.3
2014-Dec-15 22:32N 34°40' E 135°12'0 0.0
2014-Dec-15 21:31N 34°40' E 135°12'0 0.0
2014-Dec-15 20:32N 34°40' E 135°12'0 0.0
2014-Dec-15 19:28N 34°40' E 135°12'0 0.0
2014-Dec-15 18:27N 34°40' E 135°12'0 0.0
2014-Dec-15 17:29N 34°40' E 135°12'0 0.0
2014-Dec-15 16:29N 34°40' E 135°12'0 0.0
2014-Dec-15 15:27N 34°40' E 135°12'0 0.0
2014-Dec-15 14:29N 34°40' E 135°12'0 0.0
2014-Dec-15 13:23N 34°40' E 135°12'0 0.0
2014-Dec-15 12:23N 34°40' E 135°12'4 4.9
2014-Dec-15 11:33N 34°37' E 135°08'  
2014-Dec-13 07:30N 34°37' E 135°06'9 9.5
2014-Dec-13 06:32N 34°37' E 135°17'  
Track history (hours):
 
Tides and Currents Weather Stations Pressure Air Temp Water Temp Dewpoint Dewpoint Depression Visibility Wind Speed Wind Dir Waves Ship Positions

Koun Maru

Last reported at 2014-Dec-22 04:33 UTC. Time now 2014-Dec-22 04:57 UTC.
Position N 34°42' E 135°16'.

Length 40 m.

Type: Tanker. MMSI: 431401871.

Date/timePositionNaut miles runAvg speedWind from/ knotsBaromVisibWave heightAir tempDewpointWater temp
2014-Dec-22 04:33N 34°42' E 135°16'9 8.4
2014-Dec-22 03:29N 34°39' E 135°26'1 0.6
2014-Dec-22 02:13N 34°38' E 135°27'4 5.7
2014-Dec-22 01:28N 34°35' E 135°24'4 0.1
2014-Dec-20 00:05N 34°39' E 135°25'6 2.9
2014-Dec-19 22:10N 34°33' E 135°25'5 0.6
2014-Dec-19 12:32N 34°34' E 135°19'1110.5
2014-Dec-19 11:31N 34°36' E 135°06'  
2014-Dec-16 10:26N 34°38' E 134°58'7 7.7
2014-Dec-16 09:32N 34°37' E 135°07'8 8.6
2014-Dec-16 08:33N 34°42' E 135°15'0 0.1
2014-Dec-16 06:16N 34°42' E 135°15'0 0.0
2014-Dec-16 04:26N 34°42' E 135°15'0 0.0
2014-Dec-16 03:31N 34°42' E 135°15'0 0.1
2014-Dec-16 02:09N 34°42' E 135°15'1 0.2
2014-Dec-15 23:18N 34°42' E 135°16'4 5.3
2014-Dec-15 22:32N 34°40' E 135°12'0 0.0
2014-Dec-15 21:31N 34°40' E 135°12'0 0.0
2014-Dec-15 20:32N 34°40' E 135°12'0 0.0
2014-Dec-15 19:28N 34°40' E 135°12'0 0.0
2014-Dec-15 18:27N 34°40' E 135°12'0 0.0
2014-Dec-15 17:29N 34°40' E 135°12'0 0.0
2014-Dec-15 16:29N 34°40' E 135°12'0 0.0
2014-Dec-15 15:27N 34°40' E 135°12'0 0.0
2014-Dec-15 14:29N 34°40' E 135°12'0 0.0
2014-Dec-15 13:23N 34°40' E 135°12'0 0.0
2014-Dec-15 12:23N 34°40' E 135°12'4 4.9
2014-Dec-15 11:33N 34°37' E 135°08'  
2014-Dec-13 07:30N 34°37' E 135°06'9 9.5
2014-Dec-13 06:32N 34°37' E 135°17'  

Dump ship's entire track history